Weather observations for the past three days for
Shishmaref, Shishmaref Airport
Metric (Imperial)
Date Time (akdt) Wind (kph) Vis. (km) Weather Sky Cond. Temperature (ºC) Relative Humidity Wind Chill (°C) Heat Index (°C) Pressure Precipitation (cm)
Air Dwpt 6 hour altimeter (cm) sea level (mb) 1 hr 3 hr 6 hr
Max. Min.
06 13:56 NW 24 16.09 Overcast OVC007 -6.1 -7.2 92% -13 76.48 1019.8
06 12:56 NW 19 16.09 Overcast OVC003 -5.6 -6.7 92% -12 76.45 1019.4
06 11:56 W 19 12.87 Overcast OVC003 -6.7 -7.8 92% -13 76.43 1019.1
06 10:56 W 22 2.41 Light Snow Fog/Mist OVC003 -7.2 -8.3 92% -14 76.4 1018.7
06 09:56 W 17 8.05 Fog/Mist BKN003 OVC006 -7.8 -8.9 -7.2 -8.3 92% -14 76.4 1018.5
06 08:56 SW 13 16.09 Overcast OVC005 -7.2 -8.3 92% -12 76.38 1018.3
06 07:56 W 13 16.09 Overcast OVC005 -7.8 -8.3 96% -13 76.35 1018.0
06 06:56 W 13 16.09 Overcast OVC005 -7.8 -9.4 88% -13 76.35 1017.9
06 05:56 W 11 16.09 Overcast OVC007 -8.3 -9.4 92% -13 76.33 1017.7
06 04:56 W 17 16.09 Overcast OVC009 -7.2 -8.3 92% -13 76.3 1017.2
06 03:56 NW 11 16.09 Overcast OVC009 -8.3 -9.4 -6.7 -10.6 92% -13 76.28 1017.1
06 02:56 W 15 16.09 Mostly Cloudy BKN011 -10 -11.1 92% -16 76.28 1016.9
06 01:56 W 17 16.09 Fair CLR -10 -11.1 92% -17 76.25 1016.7
06 00:56 W 13 16.09 Mostly Cloudy BKN050 -8.3 -9.4 92% -14 76.25 1016.5
05 23:56 W 13 16.09 Partly Cloudy SCT050 -8.9 -10.6 88% -14 76.23 1016.3
05 22:56 W 13 16.09 Fair CLR -6.7 -8.9 85% -12 76.23 1016.2
05 21:56 NW 13 16.09 Fair CLR -5 -7.2 -2.8 -5 85% -10 76.2 1016.0
05 20:56 NW 13 16.09 A Few Clouds FEW010 -4.4 -6.7 84% -9 76.2 1015.9
05 19:56 W 17 16.09 Overcast OVC012 -3.3 -6.1 81% -8 76.17 1015.6
05 18:56 NW 20 16.09 Mostly Cloudy BKN010 -2.8 -6.1 78% -8 76.17 1015.6
05 17:56 NW 19 16.09 Mostly Cloudy BKN008 -3.3 -6.1 81% -9 76.15 1015.3
05 16:56 NW 20 16.09 Mostly Cloudy BKN008 -3.3 -6.1 81% -9 76.15 1015.2
05 15:56 NW 24 16.09 Overcast OVC010 -3.3 -6.1 -2.2 -3.9 81% -10 76.12 1015.0
05 14:56 NW 22 16.09 Overcast BKN014 OVC019 -3.3 -6.7 78% -9 76.15 1015.1
05 13:56 NW 22 16.09 Overcast OVC018 -2.8 -6.1 78% -9 76.12 1014.9
05 12:56 NW 15 16.09 Overcast OVC016 -2.8 -6.1 78% -7 76.12 1014.9
05 11:56 NW 9 16.09 Overcast OVC016 -3.3 -7.2 75% -7 76.12 1014.9
05 10:56 NW 13 16.09 Overcast OVC014 -3.9 -6.7 81% -8 76.12 1014.9
05 09:56 W 13 16.09 Overcast OVC016 -3.9 -6.7 -3.9 -4.4 81% -8 76.12 1015.0
05 08:56 N 9 16.09 Overcast OVC016 -3.9 -6.7 81% -7 76.12 1014.9
05 07:56 N 11 16.09 Overcast OVC016 -3.9 -6.7 81% -8 76.12 1014.9
05 06:56 N 9 16.09 Overcast OVC014 -3.9 -6.1 85% -7 76.12 1014.9
05 05:56 W 11 16.09 Overcast OVC014 -4.4 -6.7 84% -8 76.12 1014.9
05 04:56 NW 11 16.09 Overcast OVC012 -3.9 -6.1 85% -8 76.12 1014.8
05 03:56 NW 9 16.09 Overcast OVC012 -4.4 -6.1 -2.8 -4.4 88% -8 76.15 1015.2
05 02:56 N 11 16.09 Overcast OVC012 -4.4 -6.1 88% -8 76.17 1015.6
05 01:56 W 7 16.09 Overcast OVC012 -3.9 -6.1 85% -7 76.2 1015.9
05 00:56 W 6 16.09 Overcast OVC012 -3.9 -6.1 85% 76.23 1016.4
04 23:56 NW 11 16.09 Overcast OVC012 -3.3 -6.1 81% -7 76.25 1016.7
04 22:56 N 9 16.09 Overcast OVC012 -3.3 -5.6 84% -7 76.28 1016.9
04 21:56 Vrbl 6 16.09 Overcast OVC014 -2.8 -5.6 0.6 -2.8 81% 76.28 1017.0
04 20:56 W 9 16.09 Overcast OVC014 -2.2 -5 81% -5 76.3 1017.2
04 19:56 NW 9 16.09 Overcast OVC014 -1.7 -5 78% -5 76.3 1017.3
04 18:56 W 9 16.09 Overcast OVC014 -0.6 -4.4 76% -3 76.33 1017.6
04 17:56 NW 9 16.09 Partly Cloudy SCT016 0 -5 69% -3 76.35 1018.1
04 16:56 W 9 16.09 Overcast OVC016 0 -5 69% -3 76.4 1018.7
04 15:56 W 15 16.09 Overcast OVC016 -0.6 -3.9 0.6 -3.3 79% -5 76.43 1019.0
04 14:56 W 11 16.09 Overcast OVC022 0 -3.3 79% -3 76.45 1019.4
04 13:56 W 13 16.09 Overcast SCT007 OVC020 -1.7 -3.3 89% -6 76.48 1019.7
04 12:56 W 17 16.09 Overcast BKN005 OVC021 -2.2 -3.9 88% -7 76.48 1019.8
04 11:56 W 15 16.09 Overcast OVC007 -2.2 -3.9 88% -7 76.5 1020.1
04 10:56 W 19 16.09 Overcast BKN005 OVC011 -2.8 -4.4 89% -8 76.5 1020.0
04 09:56 W 15 16.09 Overcast OVC011 -3.3 -4.4 -3.3 -6.1 92% -8 76.5 1020.1
04 08:56 SW 15 16.09 Overcast OVC007 -4.4 -5.6 91% -9 76.5 1019.9
04 07:56 W 20 16.09 Overcast OVC007 -3.9 -5 92% -10 76.48 1019.8
04 06:56 W 22 16.09 Overcast OVC005 -4.4 -5.6 91% -11 76.48 1019.7
04 05:56 W 24 16.09 Overcast SCT009 BKN023 OVC048 -5 -6.7 88% -12 76.48 1019.6
04 04:56 SW 15 14.48 Light Snow FEW015 SCT037 BKN048 -5.6 -7.2 89% -11 76.48 1019.6
04 03:56 SW 15 16.09 A Few Clouds FEW048 -6.1 -7.2 -1.7 -6.1 92% -11 76.45 1019.3
04 02:56 SW 19 16.09 Overcast OVC042 -3.3 -5.6 84% -9 76.45 1019.2
04 01:56 SW 17 16.09 Overcast OVC042 -2.8 -5 85% -8 76.43 1019.0
04 00:56 SW 19 14.48 Overcast OVC042 -2.2 -4.4 85% -7 76.43 1018.9
03 23:56 SW 17 14.48 Light Snow OVC044 -2.2 -4.4 85% -7 76.4 1018.6
03 22:56 SW 13 16.09 Overcast OVC040 -2.2 -4.4 85% -6 76.38 1018.4
03 21:56 SW 19 16.09 Overcast OVC028 -1.7 -3.9 0 -1.7 85% -7 76.35 1018.1
03 20:56 SW 20 16.09 Overcast OVC030 -0.6 -3.9 79% -6 76.38 1018.2
03 19:56 SW 22 16.09 Overcast OVC034 -0.6 -3.9 79% -6 76.35 1018.1
03 18:56 W 24 16.09 Overcast FEW015 BKN022 OVC028 -0.6 -3.3 82% -6 76.35 1017.9
03 17:56 S 28 16.09 Overcast OVC030 0 -3.9 75% -6 76.35 1017.8
03 16:56 S 30 16.09 Overcast OVC028 0 -3.9 75% -6 76.35 1018.0
03 15:56 SW 26 16.09 Overcast BKN017 OVC028 -0.6 -2.8 -0.6 -2.8 85% -6 76.35 1017.9
03 14:56 SW 31 16.09 Overcast BKN021 OVC060 -0.6 -3.3 82% -7 76.35 1017.9
Date Time (akdt) Wind (kph) Vis. (km) Weather Sky Cond. Air Dwpt Max. Min. Relative Humidity Wind Chill (°C) Heat Index (°C) altimeter (cm) sea level (mb) 1 hr 3 hr 6 hr
6 hour
Temperature (ºC) Pressure Precipitation (cm)